sensor_id;sensor_type;location;lat;lon;timestamp;pressure;altitude;pressure_sealevel;temperature;humidity
10948;BME280;5526;42.070;24.752;2023-04-07T00:00:45;98768.88;;;7.38;45.87
10948;BME280;5526;42.070;24.752;2023-04-07T00:03:13;98768.00;;;7.49;45.76
10948;BME280;5526;42.070;24.752;2023-04-07T00:05:40;98776.47;;;7.56;45.77
10948;BME280;5526;42.070;24.752;2023-04-07T00:08:07;98773.31;;;7.54;46.00
10948;BME280;5526;42.070;24.752;2023-04-07T00:10:36;98770.88;;;7.48;44.83
10948;BME280;5526;42.070;24.752;2023-04-07T00:13:03;98765.38;;;7.49;45.17
10948;BME280;5526;42.070;24.752;2023-04-07T00:15:30;98759.34;;;7.49;45.95
10948;BME280;5526;42.070;24.752;2023-04-07T00:17:58;98761.16;;;7.48;45.72
10948;BME280;5526;42.070;24.752;2023-04-07T00:20:25;98763.31;;;7.51;45.23
10948;BME280;5526;42.070;24.752;2023-04-07T00:22:52;98734.59;;;7.23;45.51
10948;BME280;5526;42.070;24.752;2023-04-07T00:25:19;98758.94;;;7.40;45.40
10948;BME280;5526;42.070;24.752;2023-04-07T00:27:48;98759.50;;;7.42;45.26
10948;BME280;5526;42.070;24.752;2023-04-07T00:30:15;98753.16;;;7.38;45.54
10948;BME280;5526;42.070;24.752;2023-04-07T00:32:43;98767.13;;;7.44;45.51
10948;BME280;5526;42.070;24.752;2023-04-07T00:35:10;98759.75;;;7.41;45.52
10948;BME280;5526;42.070;24.752;2023-04-07T00:37:37;98767.03;;;7.39;44.79
10948;BME280;5526;42.070;24.752;2023-04-07T00:40:05;98764.41;;;7.39;44.60
10948;BME280;5526;42.070;24.752;2023-04-07T00:42:33;98766.78;;;7.40;45.16
10948;BME280;5526;42.070;24.752;2023-04-07T00:45:01;98768.88;;;7.38;44.90
10948;BME280;5526;42.070;24.752;2023-04-07T00:47:29;98776.16;;;7.36;45.25
10948;BME280;5526;42.070;24.752;2023-04-07T00:49:56;98756.97;;;7.31;45.44
10948;BME280;5526;42.070;24.752;2023-04-07T00:52:23;98773.31;;;7.38;45.25
10948;BME280;5526;42.070;24.752;2023-04-07T00:54:54;98772.44;;;7.32;45.34
10948;BME280;5526;42.070;24.752;2023-04-07T00:57:22;98768.78;;;7.17;45.02
10948;BME280;5526;42.070;24.752;2023-04-07T00:59:50;98769.03;;;7.15;45.52
10948;BME280;5526;42.070;24.752;2023-04-07T01:02:23;98774.31;;;7.04;45.43
10948;BME280;5526;42.070;24.752;2023-04-07T01:04:56;98769.63;;;7.06;45.19
10948;BME280;5526;42.070;24.752;2023-04-07T01:07:29;98771.06;;;6.97;44.96
10948;BME280;5526;42.070;24.752;2023-04-07T01:10:02;98774.44;;;6.97;44.97
10948;BME280;5526;42.070;24.752;2023-04-07T01:12:34;98771.53;;;6.94;45.56
10948;BME280;5526;42.070;24.752;2023-04-07T01:15:08;98776.09;;;6.87;45.09
10948;BME280;5526;42.070;24.752;2023-04-07T01:17:41;98769.13;;;6.92;44.99
10948;BME280;5526;42.070;24.752;2023-04-07T01:20:13;98777.22;;;6.91;45.61
10948;BME280;5526;42.070;24.752;2023-04-07T01:22:45;98775.28;;;6.86;45.58
10948;BME280;5526;42.070;24.752;2023-04-07T01:25:27;98785.88;;;6.91;45.76
10948;BME280;5526;42.070;24.752;2023-04-07T01:28:14;98783.41;;;6.85;45.39
10948;BME280;5526;42.070;24.752;2023-04-07T01:30:50;98786.38;;;6.77;45.59
10948;BME280;5526;42.070;24.752;2023-04-07T01:33:19;98788.44;;;6.75;45.60
10948;BME280;5526;42.070;24.752;2023-04-07T01:35:48;98782.88;;;6.71;45.42
10948;BME280;5526;42.070;24.752;2023-04-07T01:38:17;98779.16;;;6.67;46.09
10948;BME280;5526;42.070;24.752;2023-04-07T01:40:46;98785.00;;;6.74;46.15
10948;BME280;5526;42.070;24.752;2023-04-07T01:43:15;98785.38;;;6.66;46.15
10948;BME280;5526;42.070;24.752;2023-04-07T01:45:43;98791.19;;;6.68;46.02
10948;BME280;5526;42.070;24.752;2023-04-07T01:48:13;98783.44;;;6.73;46.09
10948;BME280;5526;42.070;24.752;2023-04-07T01:50:42;98780.59;;;6.75;46.40
10948;BME280;5526;42.070;24.752;2023-04-07T01:53:10;98783.25;;;6.63;46.62
10948;BME280;5526;42.070;24.752;2023-04-07T01:55:38;98784.88;;;6.53;46.61
10948;BME280;5526;42.070;24.752;2023-04-07T01:58:05;98774.97;;;6.55;46.23
10948;BME280;5526;42.070;24.752;2023-04-07T02:00:32;98779.84;;;6.63;46.79
10948;BME280;5526;42.070;24.752;2023-04-07T02:03:06;98784.84;;;6.64;46.36
10948;BME280;5526;42.070;24.752;2023-04-07T02:05:37;98787.25;;;6.54;45.72
10948;BME280;5526;42.070;24.752;2023-04-07T02:08:07;98777.91;;;6.58;45.83
10948;BME280;5526;42.070;24.752;2023-04-07T02:10:38;98778.50;;;6.60;46.05
10948;BME280;5526;42.070;24.752;2023-04-07T02:13:07;98773.25;;;6.60;45.69
10948;BME280;5526;42.070;24.752;2023-04-07T02:15:35;98779.03;;;6.62;45.77
10948;BME280;5526;42.070;24.752;2023-04-07T02:18:04;98780.53;;;6.58;46.05
10948;BME280;5526;42.070;24.752;2023-04-07T02:20:35;98762.84;;;6.49;45.94
10948;BME280;5526;42.070;24.752;2023-04-07T02:23:03;98765.56;;;6.54;45.53
10948;BME280;5526;42.070;24.752;2023-04-07T02:25:33;98773.63;;;6.52;45.57
10948;BME280;5526;42.070;24.752;2023-04-07T02:28:03;98776.47;;;6.51;45.70
10948;BME280;5526;42.070;24.752;2023-04-07T02:30:31;98781.25;;;6.54;45.81
10948;BME280;5526;42.070;24.752;2023-04-07T02:32:58;98787.72;;;6.51;46.06
10948;BME280;5526;42.070;24.752;2023-04-07T02:35:25;98793.88;;;6.45;45.88
10948;BME280;5526;42.070;24.752;2023-04-07T02:37:54;98777.63;;;6.43;46.12
10948;BME280;5526;42.070;24.752;2023-04-07T02:40:21;98784.34;;;6.39;45.95
10948;BME280;5526;42.070;24.752;2023-04-07T02:42:49;98790.69;;;6.43;45.60
10948;BME280;5526;42.070;24.752;2023-04-07T02:45:16;98788.66;;;6.34;45.91
10948;BME280;5526;42.070;24.752;2023-04-07T02:47:43;98790.28;;;6.35;46.14
10948;BME280;5526;42.070;24.752;2023-04-07T02:50:10;98791.94;;;6.41;46.48
10948;BME280;5526;42.070;24.752;2023-04-07T02:52:38;98790.69;;;6.43;45.81
10948;BME280;5526;42.070;24.752;2023-04-07T02:55:07;98789.91;;;6.43;46.16
10948;BME280;5526;42.070;24.752;2023-04-07T02:57:35;98787.53;;;6.41;46.24
10948;BME280;5526;42.070;24.752;2023-04-07T03:00:02;98772.44;;;6.32;46.01
10948;BME280;5526;42.070;24.752;2023-04-07T03:02:30;98790.81;;;6.37;45.63
10948;BME280;5526;42.070;24.752;2023-04-07T03:04:57;98786.41;;;6.37;46.38
10948;BME280;5526;42.070;24.752;2023-04-07T03:07:24;98788.78;;;6.39;46.13
10948;BME280;5526;42.070;24.752;2023-04-07T03:09:51;98790.69;;;6.43;45.63
10948;BME280;5526;42.070;24.752;2023-04-07T03:12:20;98780.22;;;6.43;45.89
10948;BME280;5526;42.070;24.752;2023-04-07T03:14:47;98784.69;;;6.43;45.35
10948;BME280;5526;42.070;24.752;2023-04-07T03:17:14;98783.41;;;6.45;45.31
10948;BME280;5526;42.070;24.752;2023-04-07T03:19:42;98773.09;;;6.39;45.88
10948;BME280;5526;42.070;24.752;2023-04-07T03:22:09;98782.28;;;6.41;45.10
10948;BME280;5526;42.070;24.752;2023-04-07T03:24:36;98792.75;;;6.41;45.27
10948;BME280;5526;42.070;24.752;2023-04-07T03:27:04;98790.81;;;6.37;45.49
10948;BME280;5526;42.070;24.752;2023-04-07T03:29:32;98788.56;;;6.40;45.50
10948;BME280;5526;42.070;24.752;2023-04-07T03:32:00;98802.25;;;6.47;45.31
10948;BME280;5526;42.070;24.752;2023-04-07T03:34:27;98790.69;;;6.43;45.43
10948;BME280;5526;42.070;24.752;2023-04-07T03:36:54;98791.69;;;6.54;45.45
10948;BME280;5526;42.070;24.752;2023-04-07T03:39:21;98795.09;;;6.54;45.35
10948;BME280;5526;42.070;24.752;2023-04-07T03:41:48;98794.78;;;6.51;45.14
10948;BME280;5526;42.070;24.752;2023-04-07T03:44:16;98799.44;;;6.49;45.05
10948;BME280;5526;42.070;24.752;2023-04-07T03:46:45;98805.47;;;6.49;45.14
10948;BME280;5526;42.070;24.752;2023-04-07T03:49:12;98799.53;;;6.54;45.46
10948;BME280;5526;42.070;24.752;2023-04-07T03:51:40;98804.06;;;6.58;44.80
10948;BME280;5526;42.070;24.752;2023-04-07T03:54:07;98801.00;;;6.61;44.39
10948;BME280;5526;42.070;24.752;2023-04-07T03:56:34;98798.59;;;6.60;44.45
10948;BME280;5526;42.070;24.752;2023-04-07T03:59:02;98806.22;;;6.61;44.67
10948;BME280;5526;42.070;24.752;2023-04-07T04:01:29;98818.38;;;6.67;45.33
10948;BME280;5526;42.070;24.752;2023-04-07T04:03:58;98821.31;;;6.59;45.22
10948;BME280;5526;42.070;24.752;2023-04-07T04:06:25;98815.59;;;6.46;44.86
10948;BME280;5526;42.070;24.752;2023-04-07T04:08:52;98820.69;;;6.52;45.19
10948;BME280;5526;42.070;24.752;2023-04-07T04:11:20;98822.81;;;6.55;44.82
10948;BME280;5526;42.070;24.752;2023-04-07T04:13:47;98821.69;;;6.51;45.13
10948;BME280;5526;42.070;24.752;2023-04-07T04:16:14;98819.97;;;6.57;45.47
10948;BME280;5526;42.070;24.752;2023-04-07T04:18:42;98816.09;;;6.59;45.03
10948;BME280;5526;42.070;24.752;2023-04-07T04:21:10;98828.16;;;6.60;45.03
10948;BME280;5526;42.070;24.752;2023-04-07T04:23:37;98826.69;;;6.64;45.17
10948;BME280;5526;42.070;24.752;2023-04-07T04:26:05;98839.28;;;6.67;44.94
10948;BME280;5526;42.070;24.752;2023-04-07T04:28:32;98829.47;;;6.74;44.58
10948;BME280;5526;42.070;24.752;2023-04-07T04:30:59;98834.81;;;6.79;44.77
10948;BME280;5526;42.070;24.752;2023-04-07T04:33:26;98837.53;;;6.84;44.47
10948;BME280;5526;42.070;24.752;2023-04-07T04:35:53;98830.78;;;6.88;44.29
10948;BME280;5526;42.070;24.752;2023-04-07T04:38:22;98834.44;;;6.87;44.07
10948;BME280;5526;42.070;24.752;2023-04-07T04:40:49;98834.22;;;6.89;44.29
10948;BME280;5526;42.070;24.752;2023-04-07T04:43:17;98836.31;;;7.03;44.17
10948;BME280;5526;42.070;24.752;2023-04-07T04:45:44;98841.25;;;7.16;43.88
10948;BME280;5526;42.070;24.752;2023-04-07T04:48:11;98847.22;;;7.28;44.06
10948;BME280;5526;42.070;24.752;2023-04-07T04:50:38;98852.63;;;7.38;43.13
10948;BME280;5526;42.070;24.752;2023-04-07T04:53:07;98846.75;;;7.31;43.30
10948;BME280;5526;42.070;24.752;2023-04-07T04:55:36;98846.91;;;7.41;43.26
10948;BME280;5526;42.070;24.752;2023-04-07T04:58:05;98847.41;;;7.38;42.37
10948;BME280;5526;42.070;24.752;2023-04-07T05:00:32;98851.69;;;7.44;42.97
10948;BME280;5526;42.070;24.752;2023-04-07T05:02:59;98851.63;;;7.56;42.76
10948;BME280;5526;42.070;24.752;2023-04-07T05:05:28;98863.44;;;7.58;42.49
10948;BME280;5526;42.070;24.752;2023-04-07T05:07:55;98867.56;;;7.54;42.63
10948;BME280;5526;42.070;24.752;2023-04-07T05:10:22;98863.53;;;7.63;42.71
10948;BME280;5526;42.070;24.752;2023-04-07T05:12:51;98871.47;;;7.68;42.45
10948;BME280;5526;42.070;24.752;2023-04-07T05:15:18;98865.97;;;7.70;41.96
10948;BME280;5526;42.070;24.752;2023-04-07T05:17:45;98873.84;;;7.70;42.09
10948;BME280;5526;42.070;24.752;2023-04-07T05:20:15;98873.16;;;7.91;41.83
10948;BME280;5526;42.070;24.752;2023-04-07T05:22:42;98876.94;;;8.16;41.59
10948;BME280;5526;42.070;24.752;2023-04-07T05:25:10;98881.28;;;8.27;41.38
10948;BME280;5526;42.070;24.752;2023-04-07T05:27:37;98885.22;;;8.46;41.44
10948;BME280;5526;42.070;24.752;2023-04-07T05:30:07;98875.59;;;8.52;41.12
10948;BME280;5526;42.070;24.752;2023-04-07T05:32:36;98876.94;;;8.76;41.31
10948;BME280;5526;42.070;24.752;2023-04-07T05:35:03;98882.38;;;8.91;40.12
10948;BME280;5526;42.070;24.752;2023-04-07T05:37:31;98880.63;;;8.97;40.27
10948;BME280;5526;42.070;24.752;2023-04-07T05:39:58;98882.53;;;9.01;39.97
10948;BME280;5526;42.070;24.752;2023-04-07T05:42:25;98884.28;;;8.96;40.15
10948;BME280;5526;42.070;24.752;2023-04-07T05:44:52;98886.56;;;8.49;39.60
10948;BME280;5526;42.070;24.752;2023-04-07T05:47:21;98885.16;;;8.79;39.60
10948;BME280;5526;42.070;24.752;2023-04-07T05:49:48;98883.06;;;8.60;39.12
10948;BME280;5526;42.070;24.752;2023-04-07T05:52:16;98877.50;;;8.56;40.24
10948;BME280;5526;42.070;24.752;2023-04-07T05:54:43;98883.22;;;8.53;39.00
10948;BME280;5526;42.070;24.752;2023-04-07T05:57:10;98889.53;;;8.52;38.52
10948;BME280;5526;42.070;24.752;2023-04-07T05:59:37;98891.44;;;8.78;39.72
10948;BME280;5526;42.070;24.752;2023-04-07T06:02:04;98890.22;;;8.86;39.05
10948;BME280;5526;42.070;24.752;2023-04-07T06:04:33;98899.59;;;9.04;39.35
10948;BME280;5526;42.070;24.752;2023-04-07T06:07:01;98880.94;;;9.27;39.17
10948;BME280;5526;42.070;24.752;2023-04-07T06:09:29;98893.88;;;9.07;38.16
10948;BME280;5526;42.070;24.752;2023-04-07T06:11:56;98887.13;;;9.16;39.05
10948;BME280;5526;42.070;24.752;2023-04-07T06:14:24;98884.72;;;9.36;38.75
10948;BME280;5526;42.070;24.752;2023-04-07T06:16:51;98887.28;;;9.57;38.44
10948;BME280;5526;42.070;24.752;2023-04-07T06:19:18;98901.09;;;9.48;38.46
10948;BME280;5526;42.070;24.752;2023-04-07T06:21:47;98889.81;;;9.21;38.56
10948;BME280;5526;42.070;24.752;2023-04-07T06:24:14;98899.38;;;9.32;38.10
10948;BME280;5526;42.070;24.752;2023-04-07T06:26:41;98895.16;;;9.31;36.93
10948;BME280;5526;42.070;24.752;2023-04-07T06:29:08;98895.91;;;9.26;37.40
10948;BME280;5526;42.070;24.752;2023-04-07T06:31:36;98904.09;;;9.56;37.04
10948;BME280;5526;42.070;24.752;2023-04-07T06:34:04;98918.25;;;9.82;37.45
10948;BME280;5526;42.070;24.752;2023-04-07T06:36:31;98901.41;;;9.78;36.71
10948;BME280;5526;42.070;24.752;2023-04-07T06:39:00;98907.22;;;10.11;37.02
10948;BME280;5526;42.070;24.752;2023-04-07T06:41:28;98908.88;;;9.96;37.32
10948;BME280;5526;42.070;24.752;2023-04-07T06:43:56;98913.06;;;10.18;37.07
10948;BME280;5526;42.070;24.752;2023-04-07T06:46:23;98909.66;;;10.23;36.27
10948;BME280;5526;42.070;24.752;2023-04-07T06:48:51;98919.66;;;10.21;36.82
10948;BME280;5526;42.070;24.752;2023-04-07T06:51:18;98911.00;;;9.94;37.00
10948;BME280;5526;42.070;24.752;2023-04-07T06:53:46;98921.50;;;9.94;37.14
10948;BME280;5526;42.070;24.752;2023-04-07T06:56:14;98927.22;;;9.33;36.45
10948;BME280;5526;42.070;24.752;2023-04-07T06:58:41;98922.09;;;9.43;36.67
10948;BME280;5526;42.070;24.752;2023-04-07T07:01:09;98924.34;;;9.87;37.42
10948;BME280;5526;42.070;24.752;2023-04-07T07:03:36;98926.38;;;9.80;37.52
10948;BME280;5526;42.070;24.752;2023-04-07T07:06:03;98926.72;;;9.89;37.03
10948;BME280;5526;42.070;24.752;2023-04-07T07:08:31;98934.22;;;9.75;36.65
10948;BME280;5526;42.070;24.752;2023-04-07T07:10:58;98920.69;;;9.62;37.22
10948;BME280;5526;42.070;24.752;2023-04-07T07:13:27;98923.41;;;9.72;37.29
10948;BME280;5526;42.070;24.752;2023-04-07T07:15:54;98931.59;;;9.75;38.03
10948;BME280;5526;42.070;24.752;2023-04-07T07:18:22;98924.88;;;9.89;36.73
10948;BME280;5526;42.070;24.752;2023-04-07T07:20:49;98930.72;;;9.96;36.96
10948;BME280;5526;42.070;24.752;2023-04-07T07:23:16;98929.09;;;10.17;36.41
10948;BME280;5526;42.070;24.752;2023-04-07T07:25:44;98928.63;;;10.71;36.04
10948;BME280;5526;42.070;24.752;2023-04-07T07:28:11;98945.53;;;10.39;35.83
10948;BME280;5526;42.070;24.752;2023-04-07T07:30:40;98925.03;;;10.41;36.83
10948;BME280;5526;42.070;24.752;2023-04-07T07:33:07;98915.72;;;11.46;34.60
10948;BME280;5526;42.070;24.752;2023-04-07T07:35:34;98923.75;;;11.00;36.25
10948;BME280;5526;42.070;24.752;2023-04-07T07:38:02;98928.03;;;11.11;35.91
10948;BME280;5526;42.070;24.752;2023-04-07T07:40:29;98928.72;;;10.91;34.71
10948;BME280;5526;42.070;24.752;2023-04-07T07:42:57;98924.06;;;11.08;35.06
10948;BME280;5526;42.070;24.752;2023-04-07T07:45:24;98919.94;;;11.32;35.26
10948;BME280;5526;42.070;24.752;2023-04-07T07:47:53;98920.22;;;11.51;34.85
10948;BME280;5526;42.070;24.752;2023-04-07T07:50:20;98919.69;;;11.39;35.16
10948;BME280;5526;42.070;24.752;2023-04-07T07:52:47;98923.88;;;11.40;34.37
10948;BME280;5526;42.070;24.752;2023-04-07T07:55:14;98918.63;;;11.35;34.57
10948;BME280;5526;42.070;24.752;2023-04-07T07:57:42;98917.66;;;11.91;34.61
10948;BME280;5526;42.070;24.752;2023-04-07T08:00:10;98925.03;;;11.79;35.16
10948;BME280;5526;42.070;24.752;2023-04-07T08:02:37;98904.16;;;11.47;34.53
10948;BME280;5526;42.070;24.752;2023-04-07T08:05:07;98921.00;;;11.36;33.54
10948;BME280;5526;42.070;24.752;2023-04-07T08:07:34;98908.94;;;11.60;32.88
10948;BME280;5526;42.070;24.752;2023-04-07T08:10:01;98908.72;;;11.77;33.84
10948;BME280;5526;42.070;24.752;2023-04-07T08:12:28;98910.53;;;12.26;33.99
10948;BME280;5526;42.070;24.752;2023-04-07T08:14:55;98910.53;;;11.76;33.82
10948;BME280;5526;42.070;24.752;2023-04-07T08:17:23;98907.13;;;11.81;33.35
10948;BME280;5526;42.070;24.752;2023-04-07T08:19:50;98906.59;;;11.94;33.81
10948;BME280;5526;42.070;24.752;2023-04-07T08:22:19;98914.75;;;11.72;33.82
10948;BME280;5526;42.070;24.752;2023-04-07T08:24:46;98907.88;;;12.31;33.89
10948;BME280;5526;42.070;24.752;2023-04-07T08:27:13;98904.84;;;12.98;33.11
10948;BME280;5526;42.070;24.752;2023-04-07T08:29:40;98898.31;;;12.65;33.21
10948;BME280;5526;42.070;24.752;2023-04-07T08:32:08;98900.16;;;12.70;33.14
10948;BME280;5526;42.070;24.752;2023-04-07T08:34:35;98888.84;;;12.49;33.64
10948;BME280;5526;42.070;24.752;2023-04-07T08:37:02;98900.94;;;12.70;33.25
10948;BME280;5526;42.070;24.752;2023-04-07T08:39:31;98900.22;;;12.40;33.44
10948;BME280;5526;42.070;24.752;2023-04-07T08:41:58;98903.31;;;12.72;33.32
10948;BME280;5526;42.070;24.752;2023-04-07T08:44:27;98901.31;;;13.95;31.66
10948;BME280;5526;42.070;24.752;2023-04-07T08:46:56;98888.59;;;13.63;32.26
10948;BME280;5526;42.070;24.752;2023-04-07T08:49:27;98881.63;;;14.86;30.66
10948;BME280;5526;42.070;24.752;2023-04-07T08:51:58;98882.66;;;14.43;30.43
10948;BME280;5526;42.070;24.752;2023-04-07T08:54:27;98879.69;;;14.16;31.66
10948;BME280;5526;42.070;24.752;2023-04-07T08:56:56;98875.13;;;14.27;31.82
10948;BME280;5526;42.070;24.752;2023-04-07T08:59:24;98885.00;;;14.68;31.38
10948;BME280;5526;42.070;24.752;2023-04-07T09:01:54;98882.91;;;14.89;31.46
10948;BME280;5526;42.070;24.752;2023-04-07T09:04:22;98873.84;;;14.71;31.55
10948;BME280;5526;42.070;24.752;2023-04-07T09:06:49;98879.16;;;14.19;31.22
10948;BME280;5526;42.070;24.752;2023-04-07T09:09:16;98872.81;;;14.44;31.85
10948;BME280;5526;42.070;24.752;2023-04-07T09:11:44;98865.38;;;15.35;30.62
10948;BME280;5526;42.070;24.752;2023-04-07T09:14:13;98871.13;;;15.18;31.02
10948;BME280;5526;42.070;24.752;2023-04-07T09:16:41;98879.66;;;15.15;31.03
10948;BME280;5526;42.070;24.752;2023-04-07T09:19:08;98886.03;;;14.49;30.85
10948;BME280;5526;42.070;24.752;2023-04-07T09:21:47;98895.81;;;14.48;31.30
10948;BME280;5526;42.070;24.752;2023-04-07T09:24:21;98884.78;;;14.65;31.51
10948;BME280;5526;42.070;24.752;2023-04-07T09:26:48;98894.91;;;14.34;31.59
10948;BME280;5526;42.070;24.752;2023-04-07T09:29:20;98884.25;;;14.11;31.47
10948;BME280;5526;42.070;24.752;2023-04-07T09:31:48;98882.00;;;14.98;31.70
10948;BME280;5526;42.070;24.752;2023-04-07T09:34:24;98876.16;;;15.20;30.59
10948;BME280;5526;42.070;24.752;2023-04-07T09:36:51;98870.25;;;15.78;29.99
10948;BME280;5526;42.070;24.752;2023-04-07T09:39:18;98872.22;;;15.73;30.28
10948;BME280;5526;42.070;24.752;2023-04-07T09:41:46;98871.19;;;16.19;30.21
10948;BME280;5526;42.070;24.752;2023-04-07T09:44:13;98863.41;;;16.23;29.93
10948;BME280;5526;42.070;24.752;2023-04-07T09:46:53;98858.91;;;16.37;30.29
10948;BME280;5526;42.070;24.752;2023-04-07T09:49:21;98860.47;;;16.38;30.58
10948;BME280;5526;42.070;24.752;2023-04-07T09:51:53;98863.34;;;16.82;29.76
10948;BME280;5526;42.070;24.752;2023-04-07T09:54:32;98855.72;;;16.21;28.70
10948;BME280;5526;42.070;24.752;2023-04-07T09:57:01;98857.16;;;16.00;29.80
10948;BME280;5526;42.070;24.752;2023-04-07T09:59:29;98866.22;;;16.45;29.55
10948;BME280;5526;42.070;24.752;2023-04-07T10:01:59;98865.25;;;16.41;30.46
10948;BME280;5526;42.070;24.752;2023-04-07T10:04:27;98859.53;;;16.47;29.92
10948;BME280;5526;42.070;24.752;2023-04-07T10:06:56;98871.84;;;16.11;30.80
10948;BME280;5526;42.070;24.752;2023-04-07T10:09:26;98865.59;;;16.34;30.01
10948;BME280;5526;42.070;24.752;2023-04-07T10:11:54;98870.25;;;15.97;29.67
10948;BME280;5526;42.070;24.752;2023-04-07T10:14:27;98870.78;;;15.25;30.77
10948;BME280;5526;42.070;24.752;2023-04-07T10:16:57;98864.56;;;16.03;30.30
10948;BME280;5526;42.070;24.752;2023-04-07T10:19:29;98859.53;;;16.61;29.32
10948;BME280;5526;42.070;24.752;2023-04-07T10:21:58;98858.50;;;16.30;29.62
10948;BME280;5526;42.070;24.752;2023-04-07T10:24:41;98856.41;;;15.49;31.02
10948;BME280;5526;42.070;24.752;2023-04-07T10:27:13;98857.13;;;15.36;31.55
10948;BME280;5526;42.070;24.752;2023-04-07T10:29:45;98858.19;;;15.54;30.61
10948;BME280;5526;42.070;24.752;2023-04-07T10:32:15;98860.72;;;15.77;30.79
10948;BME280;5526;42.070;24.752;2023-04-07T10:34:58;98854.19;;;15.56;31.95
10948;BME280;5526;42.070;24.752;2023-04-07T10:37:26;98860.75;;;15.22;31.83
10948;BME280;5526;42.070;24.752;2023-04-07T10:40:26;98850.34;;;15.62;30.51
10948;BME280;5526;42.070;24.752;2023-04-07T10:42:54;98851.34;;;15.66;31.03
10948;BME280;5526;42.070;24.752;2023-04-07T10:45:53;98860.41;;;15.97;30.92
10948;BME280;5526;42.070;24.752;2023-04-07T10:48:25;98855.94;;;15.79;31.19
10948;BME280;5526;42.070;24.752;2023-04-07T10:51:16;98856.03;;;16.06;30.39
10948;BME280;5526;42.070;24.752;2023-04-07T10:54:17;98849.72;;;16.61;30.51
10948;BME280;5526;42.070;24.752;2023-04-07T10:57:06;98835.69;;;16.29;30.83
10948;BME280;5526;42.070;24.752;2023-04-07T10:59:36;98836.72;;;16.46;31.18
10948;BME280;5526;42.070;24.752;2023-04-07T11:02:29;98850.97;;;15.91;31.83
10948;BME280;5526;42.070;24.752;2023-04-07T11:04:58;98861.00;;;16.08;31.62
10948;BME280;5526;42.070;24.752;2023-04-07T11:07:54;98849.13;;;16.05;31.07
10948;BME280;5526;42.070;24.752;2023-04-07T11:10:22;98845.72;;;15.86;31.25
10948;BME280;5526;42.070;24.752;2023-04-07T11:13:05;98852.28;;;16.07;32.61
10948;BME280;5526;42.070;24.752;2023-04-07T11:15:33;98848.72;;;16.44;31.59
10948;BME280;5526;42.070;24.752;2023-04-07T11:18:13;98854.13;;;16.52;31.65
10948;BME280;5526;42.070;24.752;2023-04-07T11:20:44;98844.44;;;16.29;31.88
10948;BME280;5526;42.070;24.752;2023-04-07T11:23:12;98844.69;;;16.46;32.09
10948;BME280;5526;42.070;24.752;2023-04-07T11:25:41;98851.44;;;16.79;31.16
10948;BME280;5526;42.070;24.752;2023-04-07T11:28:10;98847.22;;;17.28;30.61
10948;BME280;5526;42.070;24.752;2023-04-07T11:30:42;98826.72;;;17.42;30.31
10948;BME280;5526;42.070;24.752;2023-04-07T11:33:14;98840.03;;;16.92;30.28
10948;BME280;5526;42.070;24.752;2023-04-07T11:35:48;98840.63;;;16.89;30.78
10948;BME280;5526;42.070;24.752;2023-04-07T11:38:16;98846.69;;;17.03;31.12
10948;BME280;5526;42.070;24.752;2023-04-07T11:40:43;98846.53;;;17.36;31.00
10948;BME280;5526;42.070;24.752;2023-04-07T11:43:18;98824.75;;;17.34;29.03
10948;BME280;5526;42.070;24.752;2023-04-07T11:45:47;98839.22;;;17.41;30.01
10948;BME280;5526;42.070;24.752;2023-04-07T11:48:30;98829.47;;;17.50;29.26
10948;BME280;5526;42.070;24.752;2023-04-07T11:50:59;98826.53;;;17.60;29.82
10948;BME280;5526;42.070;24.752;2023-04-07T11:53:27;98819.41;;;17.47;30.24
10948;BME280;5526;42.070;24.752;2023-04-07T11:55:59;98830.13;;;17.20;30.79
10948;BME280;5526;42.070;24.752;2023-04-07T11:58:27;98828.78;;;16.95;30.72
10948;BME280;5526;42.070;24.752;2023-04-07T12:00:54;98827.94;;;16.86;30.97
10948;BME280;5526;42.070;24.752;2023-04-07T12:03:22;98827.50;;;16.39;31.35
10948;BME280;5526;42.070;24.752;2023-04-07T12:05:49;98824.34;;;15.64;32.52
10948;BME280;5526;42.070;24.752;2023-04-07T12:08:18;98821.16;;;15.81;32.53
10948;BME280;5526;42.070;24.752;2023-04-07T12:10:46;98824.38;;;16.23;32.37
10948;BME280;5526;42.070;24.752;2023-04-07T12:13:13;98830.38;;;16.29;32.08
10948;BME280;5526;42.070;24.752;2023-04-07T12:15:41;98824.09;;;16.25;32.59
10948;BME280;5526;42.070;24.752;2023-04-07T12:18:14;98809.28;;;15.92;32.60
10948;BME280;5526;42.070;24.752;2023-04-07T12:20:43;98821.44;;;16.38;32.93
10948;BME280;5526;42.070;24.752;2023-04-07T12:23:11;98821.63;;;16.82;32.75
10948;BME280;5526;42.070;24.752;2023-04-07T12:25:39;98820.75;;;16.87;32.37
10948;BME280;5526;42.070;24.752;2023-04-07T12:28:06;98822.19;;;16.93;32.48
10948;BME280;5526;42.070;24.752;2023-04-07T12:30:34;98820.34;;;16.80;32.23
10948;BME280;5526;42.070;24.752;2023-04-07T12:33:01;98809.56;;;16.49;32.13
10948;BME280;5526;42.070;24.752;2023-04-07T12:35:29;98810.13;;;16.73;32.43
10948;BME280;5526;42.070;24.752;2023-04-07T12:37:56;98809.94;;;17.19;31.68
10948;BME280;5526;42.070;24.752;2023-04-07T12:40:24;98805.72;;;17.18;32.34
10948;BME280;5526;42.070;24.752;2023-04-07T12:42:53;98807.00;;;16.44;33.09
10948;BME280;5526;42.070;24.752;2023-04-07T12:45:23;98813.09;;;17.08;32.88
10948;BME280;5526;42.070;24.752;2023-04-07T12:47:50;98816.69;;;16.89;33.05
10948;BME280;5526;42.070;24.752;2023-04-07T12:50:17;98790.31;;;16.25;33.63
10948;BME280;5526;42.070;24.752;2023-04-07T12:52:44;98803.19;;;15.91;34.33
10948;BME280;5526;42.070;24.752;2023-04-07T12:55:12;98807.41;;;15.92;34.44
10948;BME280;5526;42.070;24.752;2023-04-07T12:57:40;98803.69;;;15.61;34.95
10948;BME280;5526;42.070;24.752;2023-04-07T13:00:10;98810.75;;;15.84;35.11
10948;BME280;5526;42.070;24.752;2023-04-07T13:02:37;98805.16;;;15.86;34.82
10948;BME280;5526;42.070;24.752;2023-04-07T13:05:05;98808.19;;;16.65;33.97
10948;BME280;5526;42.070;24.752;2023-04-07T13:07:32;98804.03;;;16.59;34.05
10948;BME280;5526;42.070;24.752;2023-04-07T13:10:01;98795.97;;;16.24;34.46
10948;BME280;5526;42.070;24.752;2023-04-07T13:12:28;98798.38;;;16.07;34.78
10948;BME280;5526;42.070;24.752;2023-04-07T13:14:56;98787.63;;;16.93;33.61